Portada
METAR-TAF:

METAR-TAF

Aeroports :

Oradea, Romania

latitud: 47-03N, longitud: 021-56E, altitud: 135 m

Observació

L'informe es va fer fa 36 minuts, a les 02:00 UTC
Vent 2 kt del Nord/Nord-Oest
Temperatura 10°C
Humitat 93%
Pressió 1022 hPa
Visibilitat 10 km o més

METAR: LROD 280200Z AUTO 33002KT 9999 BKN130/// BKN150/// 10/09 Q1022

Hora: 05:36 (02:36 UTC)

Pronòstic

L'informe es va fer fa 12 hores i 36 minuts, a les 14:00 UTC
Pronòstic vàlid del 27 a les 15 UTC al 28 a les 00 UTC
Vent 12 kt del Nord
Visibilitat 10 km o més
Núvols disperses a una alçada de 4000 ft
Temporalment
l' 27 a les 15 UTC al 27 a les 17 UTC
Visibilitat: 5000 m
Núvols disperses a una alçada de 3500 ft, Cumulonimbus.
tempesta, pluja

TAF: LROD 271400Z 2715/2800 01012KT 9999 SCT040 TEMPO 2715/2717 5000 -TSRA SCT035CB

Observacions i pronòstics meteorològics de més de 4000 aeroports (METAR i TAF).

Les estacions disponibles són els punts grocs i vermells al mapa.

Posi el ratolí al punt desitjat per veure el nom de l'estació.

Feu clic per veure les observacions i els pronòstics meteorològics.

Per canviar el mapa: feu clic els botons verds amb una creu de color negre per apropar; al botó verd amb un guió per allunyar la imatge; o en les fletxes verdes per a mapes adjacents.


METAR-TAF: